Time;durP1;ratioP1;P1;durP2;ratioP2;P2;SDS_P1;SDS_P2;PMS_P1;PMS_P2;Temp;Humidity;BMP_temperature;BMP_pressure;BME280_temperature;BME280_humidity;BME280_pressure;Samples;Min_cycle;Max_cycle;Signal;HPM_P1;HPM_P2
2022/07/21 00:01:04;;;;;;;17.83;9.32;;;22.50;92.20;;;;;;4994943;28;20498;-35
2022/07/21 00:03:31;;;;;;;13.73;7.78;;;22.50;92.80;;;;;;4993968;28;20050;-35
2022/07/21 00:05:58;;;;;;;15.73;8.55;;;22.50;92.70;;;;;;4994328;28;20090;-35
2022/07/21 00:08:25;;;;;;;16.98;8.60;;;22.50;92.70;;;;;;4994857;28;20058;-35
2022/07/21 00:10:52;;;;;;;15.38;7.93;;;22.50;93.10;;;;;;4994036;28;20129;-36
2022/07/21 00:13:20;;;;;;;18.83;8.30;;;22.50;93.00;;;;;;4990955;28;20058;-35
2022/07/21 00:15:47;;;;;;;18.65;9.10;;;22.50;93.10;;;;;;4994144;28;20446;-36
2022/07/21 00:18:13;;;;;;;12.57;8.30;;;22.50;93.20;;;;;;4994656;28;20054;-37
2022/07/21 00:20:40;;;;;;;14.38;8.52;;;22.40;93.30;;;;;;4993774;28;20042;-37
2022/07/21 00:23:07;;;;;;;11.27;8.02;;;22.40;93.50;;;;;;4994955;28;20121;-36
2022/07/21 00:25:34;;;;;;;15.75;9.02;;;22.40;93.80;;;;;;5008421;28;20331;-35
2022/07/21 00:28:01;;;;;;;13.48;8.77;;;22.40;93.80;;;;;;4983588;28;20078;-35
2022/07/21 00:30:29;;;;;;;16.90;8.50;;;22.30;94.10;;;;;;4994085;28;20078;-36
2022/07/21 00:32:55;;;;;;;17.45;9.93;;;22.30;94.00;;;;;;4992406;28;20446;-36
2022/07/21 00:35:22;;;;;;;15.80;10.20;;;22.20;94.60;;;;;;4987650;28;20578;-35
2022/07/21 00:37:49;;;;;;;16.58;10.48;;;22.20;95.40;;;;;;4991202;28;20137;-35
2022/07/21 00:40:16;;;;;;;16.33;10.38;;;22.10;95.70;;;;;;4993804;28;20062;-35
2022/07/21 00:42:43;;;;;;;16.60;9.98;;;22.00;96.10;;;;;;4993064;28;20050;-35
2022/07/21 00:45:11;;;;;;;18.83;10.88;;;21.90;96.50;;;;;;4976112;28;20073;-35
2022/07/21 00:47:39;;;;;;;14.48;9.50;;;21.90;96.90;;;;;;4993073;28;20055;-35
2022/07/21 00:50:07;;;;;;;19.85;11.45;;;21.90;96.90;;;;;;4993287;28;20129;-35
2022/07/21 00:52:34;;;;;;;14.65;10.43;;;21.80;97.00;;;;;;4992901;28;20129;-35
2022/07/21 00:55:02;;;;;;;23.33;12.35;;;21.80;97.40;;;;;;4975562;28;20132;-40
2022/07/21 00:57:29;;;;;;;16.38;10.93;;;21.80;97.80;;;;;;4992842;28;20054;-35
2022/07/21 00:59:55;;;;;;;20.02;11.88;;;21.70;98.00;;;;;;4979735;28;20129;-35
2022/07/21 01:02:22;;;;;;;16.05;10.52;;;21.70;98.40;;;;;;4975610;28;20088;-35
2022/07/21 01:04:50;;;;;;;15.23;10.07;;;21.60;98.40;;;;;;4993087;28;20046;-35
2022/07/21 01:07:19;;;;;;;19.55;11.88;;;21.60;98.30;;;;;;4992005;28;20521;-35
2022/07/21 01:09:46;;;;;;;17.58;8.90;;;21.60;98.50;;;;;;4989610;28;20181;-35
2022/07/21 01:12:13;;;;;;;17.98;10.85;;;21.50;98.30;;;;;;4991664;28;20085;-36
2022/07/21 01:14:39;;;;;;;22.05;11.32;;;21.50;98.90;;;;;;4992804;28;20129;-36
2022/07/21 01:17:06;;;;;;;16.13;10.85;;;21.50;99.10;;;;;;4991516;28;20078;-35
2022/07/21 01:19:33;;;;;;;18.40;11.73;;;21.50;99.20;;;;;;4992642;28;20054;-35
2022/07/21 01:22:01;;;;;;;18.80;11.02;;;21.50;99.20;;;;;;4990540;28;20052;-34
2022/07/21 01:24:28;;;;;;;22.27;11.82;;;21.40;99.40;;;;;;4988957;28;20129;-35
2022/07/21 01:26:55;;;;;;;16.55;10.45;;;21.40;99.40;;;;;;4990009;28;20049;-35
2022/07/21 01:29:21;;;;;;;20.23;11.52;;;21.40;99.30;;;;;;4993325;28;20113;-34
2022/07/21 01:31:49;;;;;;;15.00;9.52;;;21.30;99.50;;;;;;4990989;28;20546;-34
2022/07/21 01:34:15;;;;;;;16.95;10.13;;;21.40;99.50;;;;;;4993299;28;20050;-35
2022/07/21 01:36:42;;;;;;;19.17;11.10;;;21.30;99.40;;;;;;4974876;28;20060;-35
2022/07/21 01:41:54;;;;;;;15.23;10.38;;;21.40;99.90;;;;;;4991457;28;20093;-35
2022/07/21 01:44:21;;;;;;;19.23;10.95;;;21.30;99.70;;;;;;5003608;28;20146;-36
2022/07/21 01:46:49;;;;;;;20.85;12.10;;;21.30;99.80;;;;;;4992808;28;20122;-36
2022/07/21 01:49:16;;;;;;;18.80;12.40;;;21.20;99.90;;;;;;5006933;28;20137;-36
2022/07/21 01:51:43;;;;;;;17.88;11.32;;;21.20;99.90;;;;;;4991721;28;20209;-36
2022/07/21 01:54:11;;;;;;;19.33;13.35;;;21.10;99.90;;;;;;4981431;28;20089;-37
2022/07/21 01:56:38;;;;;;;21.80;13.10;;;21.10;99.90;;;;;;4990161;28;20133;-37
2022/07/21 01:59:05;;;;;;;21.90;13.27;;;21.00;99.90;;;;;;4992200;28;20060;-35
2022/07/21 02:01:32;;;;;;;24.13;14.52;;;20.90;99.90;;;;;;4990760;28;20459;-35
2022/07/21 02:04:01;;;;;;;20.60;12.68;;;20.90;99.90;;;;;;4990615;28;20379;-36
2022/07/21 02:06:28;;;;;;;18.13;11.88;;;20.90;99.90;;;;;;4990288;28;20058;-35
2022/07/21 02:08:54;;;;;;;16.52;11.48;;;20.90;99.90;;;;;;4990180;28;20125;-35
2022/07/21 02:11:22;;;;;;;16.45;11.80;;;20.80;99.90;;;;;;4979006;28;20082;-35
2022/07/21 02:13:49;;;;;;;22.10;13.75;;;20.90;99.90;;;;;;4991936;28;20047;-35
2022/07/21 02:16:16;;;;;;;16.80;11.07;;;20.90;99.90;;;;;;4992129;28;20477;-35
2022/07/21 02:18:44;;;;;;;22.30;14.30;;;20.90;99.90;;;;;;4977049;28;20137;-35
2022/07/21 02:21:10;;;;;;;19.83;13.52;;;20.90;99.90;;;;;;4993490;28;20141;-35
2022/07/21 02:23:37;;;;;;;19.23;13.68;;;20.90;99.90;;;;;;4995800;28;20084;-35
2022/07/21 02:26:04;;;;;;;16.35;11.00;;;20.90;99.90;;;;;;4976034;28;20057;-35
2022/07/21 02:28:32;;;;;;;20.00;13.80;;;20.90;99.90;;;;;;4990317;28;20093;-35
2022/07/21 02:30:59;;;;;;;19.67;13.30;;;20.80;99.90;;;;;;4995782;28;20550;-35
2022/07/21 02:33:26;;;;;;;16.75;12.10;;;20.90;99.90;;;;;;4995537;28;20047;-35
2022/07/21 02:35:52;;;;;;;14.57;10.55;;;20.80;99.90;;;;;;4993229;28;20086;-35
2022/07/21 02:38:19;;;;;;;17.83;12.60;;;20.80;99.90;;;;;;4995760;28;20109;-35
2022/07/21 02:40:46;;;;;;;19.83;12.93;;;20.90;99.90;;;;;;4995800;28;20133;-35
2022/07/21 02:43:13;;;;;;;14.80;12.02;;;20.90;99.90;;;;;;4995345;28;20090;-35
2022/07/21 02:45:43;;;;;;;19.17;12.05;;;20.90;99.90;;;;;;4994581;28;20137;-35
2022/07/21 02:48:11;;;;;;;16.58;10.90;;;20.80;99.90;;;;;;4995178;28;20108;-35
2022/07/21 02:50:38;;;;;;;16.75;11.23;;;20.80;99.90;;;;;;4994901;28;20138;-35
2022/07/21 02:53:06;;;;;;;13.18;10.35;;;20.80;99.90;;;;;;4995496;28;20481;-35
2022/07/21 02:55:33;;;;;;;15.80;10.63;;;20.80;99.90;;;;;;4994385;28;20046;-35
2022/07/21 02:58:07;;;;;;;17.13;11.73;;;20.80;99.90;;;;;;4994858;28;20125;-35
2022/07/21 03:00:34;;;;;;;14.82;11.38;;;20.80;99.90;;;;;;4994597;28;20097;-35
2022/07/21 03:03:03;;;;;;;19.00;12.32;;;20.80;99.90;;;;;;4995683;28;20078;-35
2022/07/21 03:05:30;;;;;;;16.77;12.85;;;20.80;99.90;;;;;;4994455;28;20054;-35
2022/07/21 03:07:57;;;;;;;21.27;14.65;;;20.80;99.90;;;;;;4993411;28;20089;-35
2022/07/21 03:10:24;;;;;;;14.60;9.98;;;20.80;99.90;;;;;;4995261;28;20137;-36
2022/07/21 03:12:50;;;;;;;13.93;9.93;;;20.80;99.90;;;;;;4997616;28;20458;-36
2022/07/21 03:15:17;;;;;;;16.65;13.00;;;20.80;99.90;;;;;;4994579;28;20151;-35
2022/07/21 03:17:44;;;;;;;20.50;14.55;;;20.80;99.90;;;;;;4993320;28;20410;-35
2022/07/21 03:20:12;;;;;;;17.08;12.80;;;20.80;99.90;;;;;;4995260;28;20450;-35
2022/07/21 03:22:39;;;;;;;17.27;14.35;;;20.80;99.90;;;;;;4995572;28;20104;-35
2022/07/21 03:25:07;;;;;;;18.13;13.68;;;20.70;99.90;;;;;;4995258;28;20050;-36
2022/07/21 03:27:36;;;;;;;21.60;16.15;;;20.70;99.90;;;;;;4977442;28;20101;-36
2022/07/21 03:30:04;;;;;;;15.52;12.82;;;20.70;99.90;;;;;;4993996;28;20125;-35
2022/07/21 03:32:30;;;;;;;15.52;12.70;;;20.70;99.90;;;;;;4978395;28;20057;-36
2022/07/21 03:34:57;;;;;;;19.08;16.50;;;20.80;99.90;;;;;;4994382;28;20105;-36
2022/07/21 03:37:26;;;;;;;15.75;12.00;;;20.80;99.90;;;;;;4986475;28;20082;-36
2022/07/21 03:39:52;;;;;;;19.08;16.02;;;20.80;99.90;;;;;;4991327;28;20073;-36
2022/07/21 03:42:19;;;;;;;19.15;15.48;;;20.70;99.90;;;;;;4993660;28;20129;-36
2022/07/21 03:44:46;;;;;;;19.73;16.42;;;20.70;99.90;;;;;;4993559;28;20081;-36
2022/07/21 03:47:13;;;;;;;21.60;17.83;;;20.70;99.90;;;;;;4993363;28;20085;-36
2022/07/21 03:49:39;;;;;;;24.00;19.30;;;20.70;99.90;;;;;;4977454;28;20089;-36
2022/07/21 03:52:06;;;;;;;20.50;18.25;;;20.70;99.90;;;;;;4994349;28;20554;-36
2022/07/21 03:54:34;;;;;;;20.88;17.65;;;20.70;99.90;;;;;;4997196;28;20054;-36
2022/07/21 03:57:01;;;;;;;20.15;17.95;;;20.70;99.90;;;;;;4992384;28;20197;-36
2022/07/21 03:59:28;;;;;;;24.00;20.98;;;20.70;99.90;;;;;;4993725;28;20073;-36
2022/07/21 04:01:54;;;;;;;29.45;24.73;;;20.70;99.90;;;;;;4989566;28;20046;-36
2022/07/21 04:04:21;;;;;;;29.88;25.23;;;20.60;99.90;;;;;;4995489;28;20054;-36
2022/07/21 04:06:48;;;;;;;30.25;26.45;;;20.60;99.90;;;;;;4995068;28;20097;-36
2022/07/21 04:09:17;;;;;;;31.00;26.73;;;20.60;99.90;;;;;;5003374;28;20110;-35
2022/07/21 04:11:45;;;;;;;20.35;18.15;;;20.50;99.90;;;;;;4977791;28;20077;-36
2022/07/21 04:14:12;;;;;;;30.30;27.02;;;20.60;99.90;;;;;;4994926;28;20125;-36
2022/07/21 04:16:38;;;;;;;29.42;24.23;;;20.60;99.90;;;;;;4999344;28;20058;-35
2022/07/21 04:19:05;;;;;;;31.65;28.02;;;20.60;99.90;;;;;;4992443;28;20129;-36
2022/07/21 04:21:32;;;;;;;33.42;28.45;;;20.60;99.90;;;;;;4991524;28;20047;-35
2022/07/21 04:23:59;;;;;;;34.17;28.08;;;20.60;99.90;;;;;;4999679;28;20193;-35
2022/07/21 04:26:27;;;;;;;30.85;27.45;;;20.60;99.90;;;;;;4991660;28;20169;-35
2022/07/21 04:28:55;;;;;;;36.95;32.00;;;20.60;99.90;;;;;;4993726;28;20081;-35
2022/07/21 04:31:22;;;;;;;36.28;29.83;;;20.60;99.90;;;;;;4993558;28;20184;-35
2022/07/21 04:33:49;;;;;;;36.05;32.22;;;20.60;99.90;;;;;;4979007;28;20042;-34
2022/07/21 04:36:15;;;;;;;32.67;28.00;;;20.50;99.90;;;;;;4994662;28;20058;-34
2022/07/21 04:38:42;;;;;;;34.72;29.55;;;20.60;99.90;;;;;;4976273;28;20081;-34
2022/07/21 04:41:09;;;;;;;31.90;28.55;;;20.60;99.90;;;;;;4993669;28;20137;-34
2022/07/21 04:43:36;;;;;;;35.80;28.60;;;20.60;99.90;;;;;;4983965;28;20105;-34
2022/07/21 04:46:04;;;;;;;35.85;28.20;;;20.60;99.90;;;;;;4993514;28;20050;-34
2022/07/21 04:48:30;;;;;;;35.47;30.33;;;20.60;99.90;;;;;;4991259;28;20073;-34
2022/07/21 04:50:57;;;;;;;36.67;30.20;;;20.60;99.90;;;;;;4992433;28;20057;-34
2022/07/21 04:53:24;;;;;;;32.65;28.05;;;20.50;99.90;;;;;;4991937;28;20057;-33
2022/07/21 04:55:51;;;;;;;31.15;27.27;;;20.50;99.90;;;;;;4976478;28;20053;-34
2022/07/21 04:58:17;;;;;;;30.02;25.65;;;20.50;99.90;;;;;;4992633;28;20093;-33
2022/07/21 05:00:44;;;;;;;39.67;32.78;;;20.50;99.90;;;;;;4990444;28;20074;-33
2022/07/21 05:03:13;;;;;;;36.97;30.65;;;20.50;99.90;;;;;;4975070;28;20077;-33
2022/07/21 05:05:40;;;;;;;33.13;29.08;;;20.50;99.90;;;;;;4971410;28;20138;-33
2022/07/21 05:08:07;;;;;;;38.03;30.58;;;20.50;99.90;;;;;;4973057;28;20392;-33
2022/07/21 05:10:33;;;;;;;26.70;23.85;;;20.50;99.90;;;;;;4974942;28;20050;-33
2022/07/21 05:13:00;;;;;;;35.53;29.80;;;20.50;99.90;;;;;;4977942;28;20038;-33
2022/07/21 05:15:27;;;;;;;36.85;28.55;;;20.50;99.90;;;;;;4983446;28;20133;-33
2022/07/21 05:17:54;;;;;;;41.47;32.88;;;20.50;99.90;;;;;;4970727;28;20130;-33
2022/07/21 05:20:22;;;;;;;40.83;32.28;;;20.60;99.90;;;;;;4968110;28;20130;-33
2022/07/21 05:22:49;;;;;;;43.63;35.78;;;20.50;99.90;;;;;;4969016;28;20138;-33
2022/07/21 05:25:15;;;;;;;42.97;35.15;;;20.50;99.90;;;;;;4971203;28;20051;-33
2022/07/21 05:27:42;;;;;;;36.90;30.52;;;20.50;99.90;;;;;;4972863;28;20389;-33
2022/07/21 05:30:10;;;;;;;43.00;36.28;;;20.50;99.90;;;;;;4971615;28;20595;-33
2022/07/21 05:32:37;;;;;;;38.58;33.63;;;20.40;99.90;;;;;;4971459;28;20090;-33
2022/07/21 05:35:08;;;;;;;41.90;34.42;;;20.40;99.90;;;;;;4978549;28;20137;-33
2022/07/21 05:37:36;;;;;;;41.88;35.20;;;20.40;99.90;;;;;;4977799;28;20055;-34
2022/07/21 05:40:03;;;;;;;37.80;33.40;;;20.30;99.90;;;;;;4971476;28;20193;-34
2022/07/21 05:42:30;;;;;;;35.78;31.88;;;20.30;99.90;;;;;;4969938;28;20082;-33
2022/07/21 05:44:58;;;;;;;38.75;32.10;;;20.40;99.90;;;;;;4974284;28;20134;-34
2022/07/21 05:47:24;;;;;;;33.53;28.20;;;20.40;99.90;;;;;;4972220;28;20085;-34
2022/07/21 05:49:51;;;;;;;33.20;29.38;;;20.50;99.90;;;;;;4973219;28;20142;-34
2022/07/21 05:52:18;;;;;;;30.80;27.55;;;20.60;99.90;;;;;;4972817;28;20133;-33
2022/07/21 05:54:46;;;;;;;32.67;28.83;;;20.60;99.90;;;;;;4974071;28;20046;-34
2022/07/21 05:57:13;;;;;;;29.20;26.08;;;20.60;99.90;;;;;;4982531;28;20063;-34
2022/07/21 05:59:39;;;;;;;31.45;27.38;;;20.60;99.90;;;;;;4971355;28;20071;-33
2022/07/21 06:02:06;;;;;;;28.15;25.05;;;20.70;99.90;;;;;;4975777;28;20049;-34
2022/07/21 06:04:33;;;;;;;28.88;25.35;;;20.70;99.90;;;;;;4975203;28;20070;-34
2022/07/21 06:07:00;;;;;;;32.50;27.88;;;20.90;99.90;;;;;;4983939;28;20470;-34
2022/07/21 06:09:27;;;;;;;31.83;27.35;;;21.00;99.90;;;;;;4988816;28;20133;-34
2022/07/21 06:11:55;;;;;;;34.30;28.38;;;21.10;99.90;;;;;;4991476;28;20053;-34
2022/07/21 06:14:21;;;;;;;34.40;27.65;;;21.20;99.90;;;;;;4992407;28;20082;-34
2022/07/21 06:16:48;;;;;;;33.13;28.67;;;21.30;99.90;;;;;;4991552;28;20057;-33
2022/07/21 06:19:15;;;;;;;30.20;26.20;;;21.30;99.90;;;;;;4991511;28;20074;-33
2022/07/21 06:21:42;;;;;;;29.83;25.85;;;21.30;99.90;;;;;;4990507;28;20076;-33
2022/07/21 06:24:08;;;;;;;32.30;27.73;;;21.30;99.90;;;;;;4982934;28;20097;-33
2022/07/21 06:26:35;;;;;;;33.10;28.45;;;21.30;99.90;;;;;;4992411;28;20077;-33
2022/07/21 06:29:03;;;;;;;32.28;27.90;;;21.30;99.90;;;;;;4991648;28;20077;-33
2022/07/21 06:31:30;;;;;;;29.08;25.98;;;21.20;99.90;;;;;;4991483;28;20113;-33
2022/07/21 06:33:57;;;;;;;31.33;27.75;;;21.20;99.90;;;;;;4979484;28;20608;-33
2022/07/21 06:36:24;;;;;;;35.45;28.83;;;21.10;99.90;;;;;;4999359;28;20470;-33
2022/07/21 06:38:50;;;;;;;31.13;26.98;;;21.10;99.90;;;;;;5002357;28;20409;-33
2022/07/21 06:41:17;;;;;;;31.02;26.42;;;20.90;99.90;;;;;;4973570;28;20475;-33
2022/07/21 06:43:44;;;;;;;31.77;28.17;;;20.90;99.90;;;;;;4977343;28;20567;-33
2022/07/21 06:46:12;;;;;;;30.77;27.05;;;20.90;99.90;;;;;;4992650;28;20525;-33
2022/07/21 06:48:39;;;;;;;35.58;29.85;;;20.90;99.90;;;;;;4984228;28;20134;-33
2022/07/21 06:51:06;;;;;;;35.53;30.08;;;21.00;99.90;;;;;;4988673;28;20134;-34
2022/07/21 06:53:33;;;;;;;35.28;30.60;;;21.00;99.90;;;;;;4991140;28;20086;-34
2022/07/21 06:55:59;;;;;;;34.95;30.75;;;21.00;99.90;;;;;;4991047;28;20145;-33
2022/07/21 06:58:27;;;;;;;34.42;30.73;;;21.00;99.90;;;;;;4976531;28;20137;-33
2022/07/21 07:00:53;;;;;;;35.40;30.58;;;21.00;99.90;;;;;;4992833;28;20061;-33
2022/07/21 07:03:21;;;;;;;33.72;28.63;;;21.00;99.90;;;;;;4987853;28;20136;-33
2022/07/21 07:05:48;;;;;;;35.80;31.05;;;21.00;99.90;;;;;;4988190;28;20054;-33
2022/07/21 07:08:15;;;;;;;35.60;31.75;;;21.00;99.90;;;;;;4995227;28;20051;-33
2022/07/21 07:10:42;;;;;;;36.05;31.73;;;21.00;99.90;;;;;;4995459;28;20133;-33
2022/07/21 07:13:09;;;;;;;33.20;29.48;;;21.00;99.90;;;;;;4993600;28;20402;-33
2022/07/21 07:15:36;;;;;;;32.50;28.48;;;21.00;99.90;;;;;;4995662;28;20463;-33
2022/07/21 07:18:02;;;;;;;36.95;29.88;;;21.00;99.90;;;;;;4997097;28;20100;-33
2022/07/21 07:20:31;;;;;;;38.65;32.30;;;21.00;99.90;;;;;;4981556;28;20141;-33
2022/07/21 07:22:57;;;;;;;34.72;29.90;;;21.00;99.90;;;;;;4994984;28;20550;-33
2022/07/21 07:25:24;;;;;;;31.77;28.27;;;21.10;99.90;;;;;;5000183;28;20149;-33
2022/07/21 07:27:51;;;;;;;34.38;30.42;;;21.10;99.90;;;;;;4994584;28;20133;-33
2022/07/21 07:30:19;;;;;;;39.58;29.98;;;21.20;99.90;;;;;;4995959;28;20057;-33
2022/07/21 07:32:46;;;;;;;36.63;32.30;;;21.20;99.90;;;;;;4980438;28;20401;-33
2022/07/21 07:35:14;;;;;;;37.95;32.65;;;21.30;99.90;;;;;;4980739;28;20505;-33
2022/07/21 07:37:43;;;;;;;36.97;31.83;;;21.30;99.90;;;;;;4994544;28;20082;-33
2022/07/21 07:40:11;;;;;;;39.45;33.28;;;21.40;99.90;;;;;;4995455;28;20467;-33
2022/07/21 07:42:38;;;;;;;38.00;32.00;;;21.40;99.90;;;;;;4977484;28;20133;-33
2022/07/21 07:45:06;;;;;;;38.55;33.35;;;21.50;99.90;;;;;;4978099;28;20137;-33
2022/07/21 07:47:33;;;;;;;32.47;27.05;;;21.50;99.90;;;;;;5003989;28;20042;-33
2022/07/21 07:49:59;;;;;;;35.30;29.00;;;21.60;99.90;;;;;;4990018;28;20061;-33
2022/07/21 07:52:26;;;;;;;34.40;30.75;;;21.70;99.90;;;;;;5001966;28;20068;-33
2022/07/21 07:54:54;;;;;;;41.35;32.35;;;21.80;99.90;;;;;;4988024;28;20534;-33
2022/07/21 07:57:21;;;;;;;39.08;33.03;;;21.80;99.90;;;;;;4993363;28;20096;-33
2022/07/21 07:59:47;;;;;;;43.80;35.42;;;21.80;99.90;;;;;;4993611;28;20461;-33
2022/07/21 08:02:14;;;;;;;41.35;34.70;;;21.70;99.90;;;;;;4993529;28;20576;-33
2022/07/21 08:04:41;;;;;;;43.47;35.42;;;21.80;99.90;;;;;;4992099;28;20561;-32
2022/07/21 08:07:08;;;;;;;41.65;34.00;;;21.80;99.90;;;;;;4993988;28;20070;-33
2022/07/21 08:09:35;;;;;;;39.92;34.97;;;21.80;99.90;;;;;;4996930;28;20145;-33
2022/07/21 08:12:03;;;;;;;40.08;34.63;;;22.00;99.90;;;;;;4977061;28;20180;-33
2022/07/21 08:14:30;;;;;;;43.88;36.13;;;22.10;99.90;;;;;;4990761;28;20054;-33
2022/07/21 08:16:58;;;;;;;44.03;36.83;;;22.30;99.90;;;;;;4974657;28;20086;-33
2022/07/21 08:19:25;;;;;;;40.08;35.15;;;22.50;99.90;;;;;;4993047;28;20109;-33
2022/07/21 08:21:51;;;;;;;39.33;33.28;;;22.70;99.90;;;;;;4992526;28;20080;-33
2022/07/21 08:24:18;;;;;;;42.22;34.30;;;22.90;99.90;;;;;;4976022;28;20137;-33
2022/07/21 08:26:46;;;;;;;37.00;32.45;;;23.10;99.90;;;;;;4993424;28;20133;-33
2022/07/21 08:29:14;;;;;;;36.25;31.23;;;23.30;99.90;;;;;;4992776;28;20050;-33
2022/07/21 08:31:41;;;;;;;35.78;31.30;;;23.40;99.90;;;;;;4991247;28;20073;-33
2022/07/21 08:34:08;;;;;;;34.30;30.67;;;23.40;99.90;;;;;;4991378;28;20046;-33
2022/07/21 08:36:34;;;;;;;37.85;32.90;;;23.50;99.90;;;;;;4989815;28;20113;-33
2022/07/21 08:39:01;;;;;;;34.83;29.83;;;23.60;99.90;;;;;;4993861;28;20050;-33
2022/07/21 08:41:28;;;;;;;37.55;32.25;;;23.60;99.90;;;;;;4994293;28;20475;-33
2022/07/21 08:43:55;;;;;;;34.97;30.50;;;23.80;99.90;;;;;;4991269;28;20509;-33
2022/07/21 08:46:24;;;;;;;33.10;29.33;;;23.80;99.70;;;;;;4993596;28;20454;-33
2022/07/21 08:48:51;;;;;;;34.20;28.80;;;23.80;99.70;;;;;;4993623;28;20090;-34
2022/07/21 08:51:17;;;;;;;31.08;27.67;;;23.80;99.40;;;;;;4978537;28;20138;-33
2022/07/21 08:53:45;;;;;;;35.60;27.35;;;23.90;98.90;;;;;;4977960;28;20146;-33
2022/07/21 08:56:11;;;;;;;31.65;27.73;;;24.00;98.70;;;;;;5006935;28;20502;-33
2022/07/21 08:58:38;;;;;;;30.55;27.35;;;23.90;98.20;;;;;;5003679;28;20129;-33
2022/07/21 09:01:05;;;;;;;29.73;26.52;;;24.00;98.30;;;;;;4975812;28;20086;-33
2022/07/21 09:03:33;;;;;;;30.48;26.88;;;24.10;98.00;;;;;;4993547;28;20082;-33
2022/07/21 09:06:06;;;;;;;27.40;23.65;;;24.20;97.90;;;;;;4993108;28;20081;-34
2022/07/21 09:08:34;;;;;;;27.25;24.40;;;24.30;98.00;;;;;;4993260;28;20105;-33
2022/07/21 09:11:11;;;;;;;27.80;24.80;;;24.50;98.20;;;;;;4992278;28;20144;-34
2022/07/21 09:13:38;;;;;;;26.60;23.75;;;24.70;97.50;;;;;;4980913;28;20086;-33
2022/07/21 09:16:06;;;;;;;25.30;22.60;;;24.90;97.30;;;;;;5013426;28;20112;-34
2022/07/21 09:18:34;;;;;;;29.67;24.23;;;24.90;96.30;;;;;;5007552;28;20109;-34
2022/07/21 09:21:01;;;;;;;28.75;25.67;;;25.00;96.10;;;;;;4993068;28;20085;-34
2022/07/21 09:23:28;;;;;;;24.27;21.27;;;25.00;95.70;;;;;;4991532;28;20495;-34
2022/07/21 09:25:56;;;;;;;29.15;25.98;;;25.20;96.00;;;;;;4993255;28;20546;-34
2022/07/21 09:28:23;;;;;;;35.60;31.25;;;25.20;95.80;;;;;;4992574;28;20042;-34
2022/07/21 09:30:56;;;;;;;38.15;31.50;;;25.20;95.80;;;;;;4991229;28;20125;-34
2022/07/21 09:33:24;;;;;;;37.55;31.58;;;25.20;96.10;;;;;;4990763;28;20078;-34
2022/07/21 09:35:57;;;;;;;44.45;36.45;;;25.30;96.00;;;;;;4992208;28;20081;-34
2022/07/21 09:38:24;;;;;;;41.60;32.88;;;25.30;96.00;;;;;;4988636;28;20090;-34
2022/07/21 09:40:51;;;;;;;34.95;30.00;;;25.30;95.90;;;;;;4991011;28;20129;-33
2022/07/21 09:43:31;;;;;;;38.33;29.77;;;25.30;95.80;;;;;;4991754;28;20133;-34
2022/07/21 09:46:01;;;;;;;35.63;31.77;;;25.30;95.40;;;;;;4991082;28;20074;-34
2022/07/21 09:48:32;;;;;;;39.10;32.22;;;25.20;95.70;;;;;;4991520;28;20310;-34
2022/07/21 09:51:15;;;;;;;39.97;34.00;;;25.20;95.50;;;;;;4992003;28;20133;-34
2022/07/21 09:53:49;;;;;;;38.35;34.13;;;25.20;95.80;;;;;;4979758;28;20384;-34
2022/07/21 09:56:16;;;;;;;38.63;33.95;;;25.00;95.70;;;;;;4991747;28;20054;-33
2022/07/21 09:58:43;;;;;;;37.47;32.70;;;24.90;95.70;;;;;;4990796;28;20133;-34
2022/07/21 10:01:09;;;;;;;37.50;31.70;;;24.90;95.80;;;;;;4976084;28;20089;-33
2022/07/21 10:03:36;;;;;;;46.72;38.53;;;24.80;95.80;;;;;;4992848;28;20078;-34
2022/07/21 10:06:05;;;;;;;41.83;36.72;;;24.70;96.10;;;;;;4982739;28;20130;-33
2022/07/21 10:08:33;;;;;;;41.58;35.42;;;24.60;96.30;;;;;;4972941;28;20086;-33
2022/07/21 10:11:00;;;;;;;36.97;33.00;;;24.50;96.30;;;;;;4971044;28;20078;-33
2022/07/21 10:13:26;;;;;;;45.47;36.38;;;24.50;96.40;;;;;;4976724;28;20137;-33
2022/07/21 10:15:53;;;;;;;43.67;37.13;;;24.40;96.60;;;;;;4975645;28;20133;-34
2022/07/21 10:18:20;;;;;;;40.45;34.25;;;24.30;96.60;;;;;;4973770;28;20054;-34
2022/07/21 10:20:48;;;;;;;38.00;33.63;;;24.20;96.60;;;;;;4974414;28;20101;-34
2022/07/21 10:23:19;;;;;;;40.08;35.42;;;24.10;96.90;;;;;;4965768;28;20101;-33
2022/07/21 10:25:46;;;;;;;44.83;36.70;;;24.10;97.00;;;;;;4987916;28;20073;-33
2022/07/21 10:28:13;;;;;;;46.00;37.75;;;24.00;97.30;;;;;;4992129;28;20126;-33
2022/07/21 10:30:41;;;;;;;45.22;37.72;;;24.00;97.30;;;;;;4991403;28;20534;-33
2022/07/21 10:33:08;;;;;;;41.90;35.58;;;23.80;97.30;;;;;;4991305;28;20157;-33
2022/07/21 10:35:35;;;;;;;45.63;37.20;;;23.70;97.60;;;;;;4991812;28;20046;-33
2022/07/21 10:38:02;;;;;;;46.95;37.90;;;23.70;97.70;;;;;;4972512;28;20141;-33
2022/07/21 10:40:39;;;;;;;40.83;35.28;;;23.60;97.80;;;;;;4975697;28;20140;-33
2022/07/21 10:43:36;;;;;;;41.00;36.60;;;23.50;97.90;;;;;;4980900;28;20058;-33
2022/07/21 10:46:02;;;;;;;42.53;33.72;;;23.40;98.10;;;;;;4963091;28;20054;-33
2022/07/21 10:48:48;;;;;;;43.63;36.10;;;23.30;98.40;;;;;;4987568;28;20077;-33
2022/07/21 10:51:17;;;;;;;46.83;35.47;;;23.40;98.40;;;;;;4994913;28;20097;-33
2022/07/21 10:53:46;;;;;;;40.42;33.97;;;23.40;98.60;;;;;;4994429;28;20507;-33
2022/07/21 10:56:28;;;;;;;42.00;34.38;;;23.40;98.60;;;;;;4992370;28;20137;-33
2022/07/21 10:58:54;;;;;;;35.58;31.67;;;23.50;98.30;;;;;;4988945;28;20058;-33
2022/07/21 11:01:24;;;;;;;41.90;34.92;;;23.50;98.20;;;;;;4992518;28;20513;-33
2022/07/21 11:04:08;;;;;;;40.42;34.03;;;23.60;98.40;;;;;;4969581;28;20057;-33
2022/07/21 11:06:35;;;;;;;40.97;34.45;;;23.60;98.30;;;;;;4992703;28;20409;-33
2022/07/21 11:09:13;;;;;;;42.38;36.42;;;23.70;98.10;;;;;;4984936;28;20161;-33
2022/07/21 11:11:57;;;;;;;43.83;35.50;;;23.90;98.30;;;;;;4980292;28;20104;-33
2022/07/21 11:14:35;;;;;;;42.63;35.42;;;23.90;98.50;;;;;;4987981;28;20051;-33
2022/07/21 11:17:03;;;;;;;46.03;37.20;;;24.00;98.20;;;;;;4991217;28;20362;-33
2022/07/21 11:19:31;;;;;;;41.55;35.65;;;24.00;98.40;;;;;;4995283;28;20413;-33
2022/07/21 11:21:59;;;;;;;39.08;33.15;;;24.00;98.10;;;;;;4994533;28;20050;-33
2022/07/21 11:24:26;;;;;;;43.72;33.58;;;24.00;98.00;;;;;;4992065;28;20046;-33
2022/07/21 11:26:56;;;;;;;43.30;36.30;;;24.00;98.10;;;;;;4988620;28;20503;-33
2022/07/21 11:29:23;;;;;;;42.75;34.67;;;24.10;98.30;;;;;;4977517;28;20133;-33
2022/07/21 11:31:49;;;;;;;40.42;34.13;;;24.10;98.50;;;;;;4991642;28;20125;-33
2022/07/21 11:34:16;;;;;;;39.67;31.20;;;24.00;98.40;;;;;;4995224;28;20077;-33
2022/07/21 11:36:43;;;;;;;35.38;30.42;;;24.00;98.50;;;;;;4991830;28;20121;-33
2022/07/21 11:39:11;;;;;;;36.03;29.88;;;23.80;98.50;;;;;;4976371;28;20050;-33
2022/07/21 11:41:39;;;;;;;33.00;29.42;;;23.70;98.60;;;;;;4993364;28;20553;-33
2022/07/21 11:44:08;;;;;;;43.60;33.03;;;23.60;98.90;;;;;;4999301;28;20060;-33
2022/07/21 11:46:46;;;;;;;40.85;33.53;;;23.60;99.20;;;;;;4989189;28;20082;-33
2022/07/21 11:49:12;;;;;;;43.58;35.42;;;23.60;99.40;;;;;;4992762;28;20141;-33
2022/07/21 11:51:39;;;;;;;35.33;29.33;;;23.60;99.60;;;;;;4992861;28;20141;-33
2022/07/21 11:54:06;;;;;;;42.15;34.67;;;23.50;99.50;;;;;;4991293;28;20069;-33
2022/07/21 11:56:40;;;;;;;39.88;33.80;;;23.70;99.80;;;;;;4990998;28;20046;-33
2022/07/21 11:59:13;;;;;;;40.30;32.95;;;23.80;99.60;;;;;;4993934;28;20087;-33
2022/07/21 12:01:50;;;;;;;36.80;31.60;;;24.00;99.50;;;;;;4977721;28;20058;-33
2022/07/21 12:04:28;;;;;;;36.47;28.67;;;24.00;99.20;;;;;;4992431;28;20089;-33
2022/07/21 12:06:54;;;;;;;35.17;30.42;;;24.00;98.80;;;;;;4989851;28;20058;-33
2022/07/21 12:09:21;;;;;;;35.03;29.35;;;24.00;98.50;;;;;;4991346;28;20141;-33
2022/07/21 12:11:48;;;;;;;39.70;31.50;;;23.90;98.20;;;;;;4977583;28;20054;-33
2022/07/21 12:14:16;;;;;;;36.92;28.60;;;23.80;98.50;;;;;;4980671;28;20113;-33
2022/07/21 12:16:50;;;;;;;35.72;29.70;;;23.90;98.70;;;;;;4992728;28;20439;-33
2022/07/21 12:19:17;;;;;;;37.58;31.25;;;23.90;98.40;;;;;;4991959;28;20074;-33
2022/07/21 12:21:45;;;;;;;36.13;29.60;;;23.80;98.50;;;;;;4992207;28;20137;-33
2022/07/21 12:24:12;;;;;;;36.88;30.88;;;23.70;98.40;;;;;;4991947;28;20129;-33
2022/07/21 12:26:39;;;;;;;33.92;27.40;;;23.60;98.60;;;;;;4993072;28;20055;-33
2022/07/21 12:29:06;;;;;;;31.80;26.35;;;23.60;98.80;;;;;;4986586;28;20054;-33
2022/07/21 12:31:35;;;;;;;25.65;22.85;;;23.60;98.70;;;;;;4993516;28;20137;-33
2022/07/21 12:34:11;;;;;;;23.88;19.90;;;23.50;98.70;;;;;;4990181;28;20419;-33